createdAt,value
2022-12-03T00:00:14.107Z,33.50
2022-12-03T00:03:01.042Z,32.40
2022-12-03T00:05:27.841Z,26.50
2022-12-03T00:07:54.968Z,30.40
2022-12-03T00:10:21.737Z,33.40
2022-12-03T00:12:48.462Z,29.90
2022-12-03T00:15:15.248Z,31.60
2022-12-03T00:17:42.077Z,31.20
2022-12-03T00:20:19.117Z,31.00
2022-12-03T00:22:46.057Z,31.90
2022-12-03T00:25:12.732Z,29.00
2022-12-03T00:27:39.553Z,28.70
2022-12-03T00:30:08.967Z,29.60
2022-12-03T00:32:35.836Z,28.30
2022-12-03T00:35:02.618Z,32.40
2022-12-03T00:37:30.605Z,29.90
2022-12-03T00:39:57.260Z,28.00
2022-12-03T00:42:23.949Z,30.20
2022-12-03T00:44:50.781Z,32.20
2022-12-03T00:47:17.948Z,26.30
2022-12-03T00:49:44.737Z,32.20
2022-12-03T00:52:11.515Z,31.60
2022-12-03T00:54:38.329Z,28.90
2022-12-03T00:57:05.196Z,32.00
2022-12-03T00:59:31.910Z,32.10
2022-12-03T01:01:58.821Z,31.50
2022-12-03T01:04:25.671Z,31.20
2022-12-03T01:06:52.564Z,32.10
2022-12-03T01:09:19.316Z,32.70
2022-12-03T01:11:46.132Z,30.50
2022-12-03T01:14:16.491Z,33.60
2022-12-03T01:16:43.594Z,33.70
2022-12-03T01:19:15.080Z,37.80
2022-12-03T01:21:43.625Z,30.00
2022-12-03T01:24:11.150Z,30.80
2022-12-03T01:26:38.304Z,31.60
2022-12-03T01:29:06.004Z,34.80
2022-12-03T01:31:51.370Z,32.60
2022-12-03T01:34:18.172Z,33.60
2022-12-03T01:36:44.864Z,35.20
2022-12-03T01:39:11.638Z,34.00
2022-12-03T01:41:39.367Z,32.30
2022-12-03T01:44:20.728Z,33.80
2022-12-03T01:46:48.348Z,32.80
2022-12-03T01:49:20.161Z,35.40
2022-12-03T01:51:49.146Z,37.40
2022-12-03T01:54:20.112Z,31.90
2022-12-03T01:56:47.283Z,34.80
2022-12-03T01:59:19.746Z,34.20
2022-12-03T02:01:47.296Z,29.60
2022-12-03T02:04:16.580Z,33.40
2022-12-03T02:06:44.073Z,30.80
2022-12-03T02:09:13.444Z,38.10
2022-12-03T02:11:44.767Z,34.60
2022-12-03T02:14:16.097Z,31.20
2022-12-03T02:16:44.011Z,34.50
2022-12-03T02:19:26.366Z,35.60
2022-12-03T02:22:03.836Z,33.50
2022-12-03T02:24:33.962Z,40.10
2022-12-03T02:27:01.151Z,34.60
2022-12-03T02:29:27.891Z,36.80
2022-12-03T02:31:54.800Z,38.70
2022-12-03T02:34:33.880Z,29.60
2022-12-03T02:37:01.513Z,27.90
2022-12-03T02:39:28.306Z,38.70
2022-12-03T02:42:14.436Z,35.50
2022-12-03T02:44:41.313Z,41.30
2022-12-03T02:47:08.566Z,28.20
2022-12-03T02:49:35.368Z,34.70
2022-12-03T02:52:02.800Z,36.60
2022-12-03T02:54:29.591Z,35.70
2022-12-03T02:56:56.411Z,32.50
2022-12-03T02:59:23.651Z,33.20
2022-12-03T03:01:50.437Z,37.10
2022-12-03T03:04:17.424Z,34.20
2022-12-03T03:06:44.370Z,32.60
2022-12-03T03:09:11.102Z,29.90
2022-12-03T03:11:37.920Z,33.20
2022-12-03T03:14:04.772Z,36.10
2022-12-03T03:16:33.961Z,40.60
2022-12-03T03:19:01.787Z,42.90
2022-12-03T03:21:28.698Z,40.70
2022-12-03T03:23:55.416Z,40.20
2022-12-03T03:26:23.026Z,42.20
2022-12-03T03:28:51.181Z,36.40
2022-12-03T03:31:22.364Z,36.20
2022-12-03T03:33:50.264Z,37.90
2022-12-03T03:36:18.722Z,37.70
2022-12-03T03:38:45.914Z,41.00
2022-12-03T03:41:14.497Z,43.00
2022-12-03T03:43:44.273Z,38.90
2022-12-03T03:46:11.794Z,38.90
2022-12-03T03:48:41.514Z,39.20
2022-12-03T03:51:09.854Z,38.20
2022-12-03T03:53:39.998Z,36.20
2022-12-03T03:56:08.983Z,39.80
2022-12-03T03:58:36.566Z,41.30
2022-12-03T04:01:03.450Z,41.50
2022-12-03T04:03:30.352Z,45.60
2022-12-03T04:05:57.495Z,43.60
2022-12-03T04:08:24.274Z,37.30
2022-12-03T04:11:17.510Z,32.60
2022-12-03T04:13:44.647Z,42.10
2022-12-03T04:16:11.609Z,41.30
2022-12-03T04:18:44.352Z,30.00
2022-12-03T04:21:38.677Z,29.70
2022-12-03T04:24:08.263Z,29.80
2022-12-03T04:26:54.513Z,39.80
2022-12-03T04:29:22.062Z,36.80
2022-12-03T04:32:07.595Z,36.30
2022-12-03T04:34:53.300Z,35.80
2022-12-03T04:37:20.327Z,40.60
2022-12-03T04:39:47.080Z,40.10
2022-12-03T04:42:13.994Z,39.80
2022-12-03T04:44:40.840Z,39.70
2022-12-03T04:47:18.163Z,35.30
2022-12-03T04:49:47.251Z,38.20
2022-12-03T04:52:16.945Z,39.50
2022-12-03T04:54:44.165Z,39.30
2022-12-03T04:57:11.229Z,42.00
2022-12-03T04:59:38.789Z,37.80
2022-12-03T05:02:06.417Z,34.20
2022-12-03T05:04:33.588Z,34.90
2022-12-03T05:07:00.470Z,31.00
2022-12-03T05:09:27.169Z,35.20
2022-12-03T05:11:53.956Z,37.60
2022-12-03T05:14:20.711Z,37.90
2022-12-03T05:16:47.651Z,32.30
2022-12-03T05:19:14.558Z,38.60
2022-12-03T05:21:41.343Z,33.30
2022-12-03T05:24:08.095Z,40.40
2022-12-03T05:26:35.026Z,37.00
2022-12-03T05:29:01.769Z,37.30
2022-12-03T05:31:28.777Z,35.30
2022-12-03T05:33:55.597Z,32.40
2022-12-03T05:36:22.431Z,36.10
2022-12-03T05:38:49.254Z,39.90
2022-12-03T05:41:34.675Z,36.60
2022-12-03T05:44:01.433Z,32.90
2022-12-03T05:46:28.234Z,37.80
2022-12-03T05:48:55.102Z,29.40
2022-12-03T05:51:21.907Z,38.80
2022-12-03T05:53:48.687Z,29.90
2022-12-03T05:56:15.374Z,31.70
2022-12-03T05:58:42.092Z,39.30
2022-12-03T06:01:08.902Z,39.60
2022-12-03T06:03:35.715Z,35.30
2022-12-03T06:06:02.933Z,38.00
2022-12-03T06:08:29.720Z,36.40
2022-12-03T06:10:56.432Z,32.40
2022-12-03T06:13:23.171Z,37.20
2022-12-03T06:15:49.980Z,29.80
2022-12-03T06:18:16.968Z,36.20
2022-12-03T06:20:43.653Z,30.90
2022-12-03T06:23:10.330Z,36.20
2022-12-03T06:25:37.151Z,31.20
2022-12-03T06:28:04.136Z,34.50
2022-12-03T06:30:31.135Z,36.70
2022-12-03T06:32:57.911Z,37.10
2022-12-03T06:35:24.776Z,34.70
2022-12-03T06:37:51.913Z,34.40
2022-12-03T06:40:19.245Z,33.00
2022-12-03T06:42:46.263Z,35.20
2022-12-03T06:45:13.226Z,36.60
2022-12-03T06:47:40.083Z,35.80
2022-12-03T06:50:08.441Z,37.00
2022-12-03T06:52:37.571Z,34.90
2022-12-03T06:55:07.583Z,34.00
2022-12-03T06:57:34.519Z,32.20
2022-12-03T07:00:01.730Z,32.60
2022-12-03T07:02:28.704Z,29.20
2022-12-03T07:04:56.142Z,35.00
2022-12-03T07:07:23.070Z,37.30
2022-12-03T07:09:50.445Z,34.50
2022-12-03T07:12:18.538Z,34.40
2022-12-03T07:14:45.443Z,34.80
2022-12-03T07:17:12.291Z,29.40
2022-12-03T07:19:39.286Z,29.30
2022-12-03T07:22:06.281Z,32.20
2022-12-03T07:24:33.281Z,34.40
2022-12-03T07:27:00.035Z,33.70
2022-12-03T07:29:26.946Z,39.10
2022-12-03T07:31:53.774Z,32.90
2022-12-03T07:34:21.018Z,38.20
2022-12-03T07:36:47.736Z,31.00
2022-12-03T07:39:15.167Z,33.80
2022-12-03T07:41:41.862Z,35.40
2022-12-03T07:44:14.044Z,35.10
2022-12-03T07:46:42.678Z,33.10
2022-12-03T07:49:09.630Z,34.20
2022-12-03T07:51:36.496Z,32.80
2022-12-03T07:54:03.664Z,32.70
2022-12-03T07:56:33.158Z,31.50
2022-12-03T07:58:59.869Z,29.30
2022-12-03T08:01:26.734Z,35.80
2022-12-03T08:03:53.693Z,36.00
2022-12-03T08:06:20.481Z,47.10
2022-12-03T08:08:47.280Z,40.50
2022-12-03T08:11:14.801Z,36.90
2022-12-03T08:13:41.725Z,39.50
2022-12-03T08:16:19.422Z,36.80
2022-12-03T08:18:48.748Z,39.90
2022-12-03T08:21:18.075Z,36.50
2022-12-03T08:23:45.119Z,34.30
2022-12-03T08:26:23.842Z,38.30
2022-12-03T08:28:52.556Z,40.80
2022-12-03T08:31:30.903Z,37.00
2022-12-03T08:34:20.315Z,41.60
2022-12-03T08:36:50.535Z,40.90
2022-12-03T08:39:23.879Z,40.90
2022-12-03T08:42:14.630Z,41.30
2022-12-03T08:44:41.366Z,37.00
2022-12-03T08:47:08.215Z,37.90
2022-12-03T08:49:38.185Z,41.70
2022-12-03T08:52:15.126Z,40.60
2022-12-03T08:54:43.196Z,39.50
2022-12-03T08:57:30.676Z,33.10
2022-12-03T09:00:14.802Z,33.10
2022-12-03T09:02:47.090Z,38.00
2022-12-03T09:05:22.959Z,44.00
2022-12-03T09:08:08.213Z,35.90
2022-12-03T09:10:35.430Z,37.20
2022-12-03T09:13:02.301Z,37.00
2022-12-03T09:15:29.130Z,35.50
2022-12-03T09:17:56.150Z,38.80
2022-12-03T09:20:23.045Z,39.60
2022-12-03T09:22:50.043Z,32.80
2022-12-03T09:25:16.688Z,41.50
2022-12-03T09:27:43.426Z,43.10
2022-12-03T09:30:10.470Z,41.10
2022-12-03T09:32:37.351Z,38.50
2022-12-03T09:35:04.851Z,37.10
2022-12-03T09:37:31.736Z,33.70
2022-12-03T09:39:58.514Z,37.60
2022-12-03T09:42:25.686Z,35.60
2022-12-03T09:44:53.010Z,36.40
2022-12-03T09:47:20.403Z,27.10
2022-12-03T09:49:47.768Z,35.70
2022-12-03T09:52:22.984Z,35.70
2022-12-03T09:54:52.431Z,35.50
2022-12-03T09:57:19.636Z,41.20
2022-12-03T09:59:46.950Z,38.60
2022-12-03T10:02:21.211Z,37.60
2022-12-03T10:04:48.878Z,40.00
2022-12-03T10:07:16.306Z,39.10
2022-12-03T10:09:43.146Z,35.10
2022-12-03T10:12:12.678Z,35.80
2022-12-03T10:14:42.405Z,42.20
2022-12-03T10:17:11.070Z,33.80
2022-12-03T10:19:39.485Z,40.90
2022-12-03T10:22:06.256Z,33.40
2022-12-03T10:24:37.251Z,34.40
2022-12-03T10:27:22.967Z,38.50
2022-12-03T10:29:55.769Z,42.60
2022-12-03T10:32:38.478Z,34.40
2022-12-03T10:35:09.004Z,35.30
2022-12-03T10:37:36.095Z,42.30
2022-12-03T10:40:10.278Z,39.50
2022-12-03T10:42:40.718Z,40.70
2022-12-03T10:45:07.517Z,39.90
2022-12-03T10:47:34.448Z,40.70
2022-12-03T10:50:05.392Z,37.40
2022-12-03T10:52:32.317Z,39.90
2022-12-03T10:54:59.405Z,37.00
2022-12-03T10:57:26.199Z,42.20
2022-12-03T10:59:53.138Z,41.10
2022-12-03T11:02:22.865Z,39.70
2022-12-03T11:04:51.281Z,41.50
2022-12-03T11:07:20.452Z,38.70
2022-12-03T11:09:54.819Z,41.70
2022-12-03T11:12:27.486Z,43.80
2022-12-03T11:14:54.527Z,36.90
2022-12-03T11:17:50.512Z,39.10
2022-12-03T11:20:22.964Z,37.60
2022-12-03T11:22:50.084Z,38.90
2022-12-03T11:25:26.096Z,39.30
2022-12-03T11:28:11.376Z,40.30
2022-12-03T11:30:50.211Z,37.20
2022-12-03T11:33:27.949Z,39.90
2022-12-03T11:36:07.621Z,42.30
2022-12-03T11:38:37.466Z,44.20
2022-12-03T11:41:27.248Z,40.70
2022-12-03T11:43:56.797Z,39.30
2022-12-03T11:46:36.137Z,41.10
2022-12-03T11:49:22.628Z,46.90
2022-12-03T11:51:49.748Z,49.80
2022-12-03T11:54:20.968Z,45.60
2022-12-03T11:56:49.398Z,41.20
2022-12-03T11:59:17.716Z,56.70
2022-12-03T12:01:45.659Z,95.10
2022-12-03T12:04:26.812Z,64.60
2022-12-03T12:06:54.683Z,42.00
2022-12-03T12:09:51.968Z,43.40
2022-12-03T12:12:28.544Z,43.10
2022-12-03T12:17:36.056Z,43.70
2022-12-03T12:20:26.482Z,42.70
2022-12-03T12:22:54.761Z,41.00
2022-12-03T12:25:37.250Z,37.20
2022-12-03T12:28:03.998Z,31.90
2022-12-03T12:30:30.763Z,39.10
2022-12-03T12:33:22.952Z,40.30
2022-12-03T12:35:50.477Z,40.40
2022-12-03T12:38:22.061Z,35.10
2022-12-03T12:40:49.989Z,35.40
2022-12-03T12:43:28.893Z,36.30
2022-12-03T12:46:05.554Z,36.70
2022-12-03T12:48:40.640Z,43.50
2022-12-03T12:51:13.315Z,46.20
2022-12-03T12:53:42.480Z,37.20
2022-12-03T12:56:29.758Z,39.50
2022-12-03T12:59:00.662Z,36.70
2022-12-03T13:01:31.853Z,36.70
2022-12-03T13:03:59.126Z,40.10
2022-12-03T13:06:29.616Z,35.70
2022-12-03T13:08:56.966Z,32.90
2022-12-03T13:11:36.371Z,36.70
2022-12-03T13:14:31.269Z,37.90
2022-12-03T13:17:00.876Z,36.50
2022-12-03T13:19:39.616Z,36.00
2022-12-03T13:22:21.200Z,35.10
2022-12-03T13:24:53.783Z,34.70
2022-12-03T13:27:28.049Z,35.90
2022-12-03T13:29:56.907Z,36.40
2022-12-03T13:32:32.968Z,35.50
2022-12-03T13:35:06.085Z,28.40
2022-12-03T13:37:33.380Z,35.70
2022-12-03T13:40:11.626Z,35.70
2022-12-03T13:42:38.484Z,37.20
2022-12-03T13:45:14.236Z,35.20
2022-12-03T13:47:45.707Z,35.50
2022-12-03T13:50:21.445Z,37.80
2022-12-03T13:52:48.917Z,40.50
2022-12-03T13:55:25.973Z,37.80
2022-12-03T13:57:53.697Z,36.80
2022-12-03T14:00:21.101Z,31.60
2022-12-03T14:02:48.900Z,37.30
2022-12-03T14:05:15.730Z,38.80
2022-12-03T14:07:42.454Z,37.70
2022-12-03T14:10:11.621Z,38.60
2022-12-03T14:12:38.419Z,37.80
2022-12-03T14:15:06.261Z,37.90
2022-12-03T14:17:33.136Z,38.60
2022-12-03T14:20:01.092Z,34.90
2022-12-03T14:22:28.337Z,30.90
2022-12-03T14:24:55.467Z,32.30
2022-12-03T14:27:24.137Z,34.70
2022-12-03T14:29:51.424Z,30.90
2022-12-03T14:32:18.501Z,35.40
2022-12-03T14:34:45.357Z,37.40
2022-12-03T14:37:12.208Z,37.60
2022-12-03T14:39:39.004Z,38.40
2022-12-03T14:42:14.740Z,35.70
2022-12-03T14:44:47.371Z,38.90
2022-12-03T14:47:16.477Z,37.10
2022-12-03T14:49:44.147Z,38.70
2022-12-03T14:52:12.511Z,35.60
2022-12-03T14:54:41.630Z,39.80
2022-12-03T14:57:09.298Z,38.20
2022-12-03T14:59:36.314Z,34.00
2022-12-03T15:02:03.223Z,37.20
2022-12-03T15:04:30.163Z,35.10
2022-12-03T15:06:56.913Z,36.80
2022-12-03T15:09:23.797Z,35.00
2022-12-03T15:11:50.730Z,40.70
2022-12-03T15:14:17.609Z,38.00
2022-12-03T15:16:44.659Z,36.30
2022-12-03T15:19:18.232Z,39.60
2022-12-03T15:21:45.550Z,36.00
2022-12-03T15:24:12.336Z,34.20
2022-12-03T15:26:39.572Z,35.20
2022-12-03T15:29:06.306Z,37.90
2022-12-03T15:31:33.267Z,36.10
2022-12-03T15:34:00.178Z,36.30
2022-12-03T15:36:27.285Z,38.00
2022-12-03T15:38:54.001Z,35.80
2022-12-03T15:41:21.257Z,40.50
2022-12-03T15:43:48.426Z,39.80
2022-12-03T15:46:15.257Z,35.40
2022-12-03T15:48:42.829Z,42.80
2022-12-03T15:51:09.830Z,40.10
2022-12-03T15:53:36.806Z,37.80
2022-12-03T15:56:03.752Z,44.90
2022-12-03T15:58:30.551Z,47.20
2022-12-03T16:00:57.486Z,51.30
2022-12-03T16:03:24.471Z,49.00
2022-12-03T16:05:51.200Z,49.90
2022-12-03T16:08:19.239Z,43.30
2022-12-03T16:10:46.362Z,42.70
2022-12-03T16:13:14.017Z,47.40
2022-12-03T16:15:41.286Z,47.90
2022-12-03T16:18:08.188Z,42.20
2022-12-03T16:20:34.948Z,49.80
2022-12-03T16:23:01.981Z,48.10
2022-12-03T16:25:28.674Z,44.20
2022-12-03T16:27:56.080Z,49.10
2022-12-03T16:30:24.164Z,44.80
2022-12-03T16:32:51.037Z,44.30
2022-12-03T16:35:17.881Z,54.10
2022-12-03T16:37:44.717Z,46.20
2022-12-03T16:40:11.708Z,47.40
2022-12-03T16:42:38.472Z,37.10
2022-12-03T16:45:09.604Z,44.10
2022-12-03T16:47:36.369Z,43.60
2022-12-03T16:50:06.941Z,37.90
2022-12-03T16:52:34.789Z,38.20
2022-12-03T16:55:01.648Z,38.60
2022-12-03T16:57:33.506Z,34.30
2022-12-03T17:00:00.777Z,41.30
2022-12-03T17:02:27.876Z,38.10
2022-12-03T17:04:54.661Z,39.20
2022-12-03T17:07:21.483Z,37.10
2022-12-03T17:09:48.783Z,38.30
2022-12-03T17:12:15.683Z,40.70
2022-12-03T17:14:42.416Z,36.90
2022-12-03T17:17:09.198Z,38.40
2022-12-03T17:19:35.947Z,44.10
2022-12-03T17:22:02.761Z,44.70
2022-12-03T17:24:29.818Z,41.80
2022-12-03T17:26:57.107Z,38.60
2022-12-03T17:29:24.018Z,33.50
2022-12-03T17:31:51.003Z,43.20
2022-12-03T17:34:17.817Z,37.70
2022-12-03T17:36:44.494Z,41.70
2022-12-03T17:39:11.232Z,40.60
2022-12-03T17:41:38.070Z,40.70
2022-12-03T17:44:09.643Z,40.60
2022-12-03T17:46:38.229Z,42.90
2022-12-03T17:49:05.576Z,35.70
2022-12-03T17:51:32.947Z,44.70
2022-12-03T17:54:00.632Z,41.90
2022-12-03T17:56:27.388Z,41.00
2022-12-03T17:58:54.281Z,48.30
2022-12-03T18:01:22.468Z,44.50
2022-12-03T18:03:49.189Z,45.60
2022-12-03T18:06:15.947Z,43.80
2022-12-03T18:08:42.688Z,49.20
2022-12-03T18:11:09.662Z,43.80
2022-12-03T18:13:37.060Z,42.40
2022-12-03T18:16:04.072Z,39.80
2022-12-03T18:18:30.933Z,38.60
2022-12-03T18:21:01.486Z,33.50
2022-12-03T18:23:28.559Z,38.60
2022-12-03T18:25:56.574Z,41.60
2022-12-03T18:28:23.841Z,45.10
2022-12-03T18:30:52.662Z,47.10
2022-12-03T18:33:20.800Z,43.90
2022-12-03T18:35:47.580Z,37.60
2022-12-03T18:38:17.105Z,48.90
2022-12-03T18:40:45.728Z,41.90
2022-12-03T18:43:16.569Z,44.60
2022-12-03T18:45:43.413Z,41.80
2022-12-03T18:48:19.970Z,43.90
2022-12-03T18:50:47.071Z,41.80
2022-12-03T18:53:16.850Z,44.10
2022-12-03T18:55:45.876Z,44.90
2022-12-03T18:58:12.616Z,37.30
2022-12-03T19:00:39.485Z,38.50
2022-12-03T19:03:06.799Z,41.60
2022-12-03T19:05:35.165Z,43.70
2022-12-03T19:08:02.861Z,43.00
2022-12-03T19:10:29.896Z,39.30
2022-12-03T19:12:56.885Z,38.40
2022-12-03T19:15:24.175Z,41.60
2022-12-03T19:17:51.260Z,38.20
2022-12-03T19:20:19.159Z,40.80
2022-12-03T19:22:46.084Z,39.60
2022-12-03T19:25:12.822Z,41.00
2022-12-03T19:27:39.558Z,49.20
2022-12-03T19:30:07.226Z,45.50
2022-12-03T19:32:35.707Z,45.50
2022-12-03T19:35:04.561Z,43.70
2022-12-03T19:37:33.135Z,38.50
2022-12-03T19:40:00.469Z,43.00
2022-12-03T19:42:27.492Z,43.10
2022-12-03T19:44:55.084Z,46.90
2022-12-03T19:47:24.014Z,50.80
2022-12-03T19:49:53.231Z,42.40
2022-12-03T19:52:20.561Z,54.10
2022-12-03T19:54:47.467Z,46.30
2022-12-03T19:57:21.521Z,43.50
2022-12-03T19:59:50.368Z,35.00
2022-12-03T20:02:17.265Z,43.90
2022-12-03T20:04:44.040Z,41.40
2022-12-03T20:07:11.086Z,45.90
2022-12-03T20:09:39.049Z,40.10
2022-12-03T20:12:06.058Z,41.30
2022-12-03T20:14:33.440Z,41.70
2022-12-03T20:17:00.403Z,37.50
2022-12-03T20:19:27.237Z,39.70
2022-12-03T20:21:57.703Z,33.40
2022-12-03T20:24:27.665Z,40.60
2022-12-03T20:26:54.326Z,47.40
2022-12-03T20:29:21.535Z,40.10
2022-12-03T20:31:48.228Z,44.70
2022-12-03T20:34:15.021Z,46.00
2022-12-03T20:36:43.624Z,44.20
2022-12-03T20:39:10.384Z,46.10
2022-12-03T20:41:37.452Z,47.80
2022-12-03T20:44:06.962Z,43.50
2022-12-03T20:46:33.728Z,45.30
2022-12-03T20:49:00.555Z,42.80
2022-12-03T20:51:29.737Z,45.90
2022-12-03T20:53:58.012Z,43.50
2022-12-03T20:56:33.961Z,46.60
2022-12-03T20:59:07.054Z,43.50
2022-12-03T21:01:35.372Z,41.50
2022-12-03T21:04:03.777Z,48.80
2022-12-03T21:06:31.069Z,46.50
2022-12-03T21:08:58.599Z,49.30
2022-12-03T21:11:29.149Z,43.20
2022-12-03T21:13:57.752Z,49.00
2022-12-03T21:16:46.026Z,48.20
2022-12-03T21:19:16.983Z,42.90
2022-12-03T21:21:43.816Z,43.20
2022-12-03T21:24:12.753Z,43.30
2022-12-03T21:26:40.989Z,47.20
2022-12-03T21:29:08.131Z,52.00
2022-12-03T21:31:37.006Z,47.30
2022-12-03T21:34:04.489Z,52.70
2022-12-03T21:36:31.551Z,55.10
2022-12-03T21:38:58.297Z,48.00
2022-12-03T21:41:25.235Z,44.80
2022-12-03T21:43:52.110Z,48.80
2022-12-03T21:47:12.529Z,51.90
2022-12-03T21:53:59.460Z,38.90
2022-12-03T21:56:26.484Z,52.60
2022-12-03T21:58:54.258Z,45.90
2022-12-03T22:01:23.686Z,48.90
2022-12-03T22:03:50.944Z,49.90
2022-12-03T22:06:18.893Z,44.10
2022-12-03T22:08:45.850Z,54.50
2022-12-03T22:11:18.198Z,48.90
2022-12-03T22:13:45.939Z,37.40
2022-12-03T22:16:16.279Z,43.60
2022-12-03T22:18:44.047Z,46.70
2022-12-03T22:21:13.804Z,42.90
2022-12-03T22:23:41.043Z,38.60
2022-12-03T22:26:11.187Z,41.90
2022-12-03T22:28:42.881Z,45.50
2022-12-03T22:31:10.623Z,38.00
2022-12-03T22:33:37.703Z,40.80
2022-12-03T22:36:21.599Z,35.70
2022-12-03T22:38:50.101Z,35.50
2022-12-03T22:41:17.471Z,32.60
2022-12-03T22:43:45.004Z,35.40
2022-12-03T22:46:11.920Z,34.70
2022-12-03T22:48:40.081Z,35.10
2022-12-03T22:51:13.310Z,35.00
2022-12-03T22:53:40.108Z,34.00
2022-12-03T22:56:07.267Z,30.40
2022-12-03T22:58:34.019Z,33.30
2022-12-03T23:01:03.086Z,29.30
2022-12-03T23:03:30.428Z,28.30
2022-12-03T23:05:57.719Z,30.60
2022-12-03T23:08:24.503Z,27.60
2022-12-03T23:10:52.499Z,30.80
2022-12-03T23:13:20.072Z,37.50
2022-12-03T23:15:51.872Z,30.20
2022-12-03T23:18:19.464Z,30.90
2022-12-03T23:20:48.830Z,28.90
2022-12-03T23:23:17.314Z,30.00
2022-12-03T23:25:44.583Z,28.80
2022-12-03T23:28:11.906Z,29.60
2022-12-03T23:30:39.393Z,29.40
2022-12-03T23:33:06.205Z,24.90
2022-12-03T23:35:33.157Z,27.80
2022-12-03T23:37:59.893Z,30.00
2022-12-03T23:40:26.628Z,27.80
2022-12-03T23:42:53.572Z,33.00
2022-12-03T23:45:20.323Z,28.20
2022-12-03T23:47:46.991Z,29.30
2022-12-03T23:50:13.729Z,29.50
2022-12-03T23:52:40.507Z,31.50
2022-12-03T23:55:07.558Z,27.60
2022-12-03T23:57:34.219Z,26.80
